createdAt,value
2023-05-09T00:00:03.915Z,1.70
2023-05-09T00:01:13.104Z,1.60
2023-05-09T00:02:17.448Z,1.70
2023-05-09T00:03:20.002Z,1.70
2023-05-09T00:04:22.473Z,2.00
2023-05-09T00:05:25.467Z,1.80
2023-05-09T00:06:29.571Z,1.52
2023-05-09T00:07:33.626Z,1.75
2023-05-09T00:08:36.312Z,1.70
2023-05-09T00:09:40.408Z,1.73
2023-05-09T00:10:42.996Z,1.83
2023-05-09T00:11:45.610Z,1.52
2023-05-09T00:12:49.703Z,2.15
2023-05-09T00:13:52.020Z,1.98
2023-05-09T00:14:56.993Z,1.90
2023-05-09T00:15:59.800Z,1.77
2023-05-09T00:17:02.219Z,1.77
2023-05-09T00:18:04.629Z,1.80
2023-05-09T00:19:07.830Z,1.70
2023-05-09T00:20:12.567Z,1.92
2023-05-09T00:21:15.241Z,1.90
2023-05-09T00:22:19.010Z,1.60
2023-05-09T00:23:22.443Z,1.65
2023-05-09T00:24:26.122Z,2.00
2023-05-09T00:25:28.556Z,1.73
2023-05-09T00:26:31.297Z,1.77
2023-05-09T00:27:33.686Z,1.85
2023-05-09T00:28:35.895Z,2.00
2023-05-09T00:29:38.205Z,1.90
2023-05-09T00:30:40.649Z,1.90
2023-05-09T00:31:43.373Z,1.95
2023-05-09T00:32:47.886Z,1.42
2023-05-09T00:33:50.073Z,1.80
2023-05-09T00:34:53.422Z,1.77
2023-05-09T00:35:56.166Z,1.80
2023-05-09T00:36:58.580Z,1.60
2023-05-09T00:38:02.603Z,1.90
2023-05-09T00:39:05.814Z,2.00
2023-05-09T00:40:10.441Z,1.70
2023-05-09T00:41:12.765Z,1.90
2023-05-09T00:42:15.698Z,1.48
2023-05-09T00:43:18.529Z,1.90
2023-05-09T00:44:20.998Z,1.80
2023-05-09T00:45:23.735Z,1.70
2023-05-09T00:46:26.191Z,1.80
2023-05-09T00:47:29.786Z,1.60
2023-05-09T00:48:32.452Z,1.92
2023-05-09T00:49:34.467Z,1.92
2023-05-09T00:50:36.680Z,1.77
2023-05-09T00:51:40.898Z,1.98
2023-05-09T00:52:43.107Z,1.65
2023-05-09T00:53:45.814Z,2.10
2023-05-09T00:54:47.604Z,1.90
2023-05-09T00:55:49.472Z,2.10
2023-05-09T00:56:51.762Z,2.07
2023-05-09T00:57:53.546Z,2.00
2023-05-09T00:58:55.752Z,2.03
2023-05-09T00:59:57.542Z,1.90
2023-05-09T01:01:01.852Z,1.90
2023-05-09T01:02:03.627Z,2.00
2023-05-09T01:03:05.922Z,2.45
2023-05-09T01:04:07.838Z,1.90
2023-05-09T01:05:10.702Z,1.90
2023-05-09T01:06:33.469Z,1.95
2023-05-09T01:08:02.747Z,2.10
2023-05-09T01:09:30.078Z,2.20
2023-05-09T01:10:52.719Z,1.67
2023-05-09T01:12:13.073Z,2.13
2023-05-09T01:13:45.918Z,1.70
2023-05-09T01:15:02.125Z,1.92
2023-05-09T01:16:28.226Z,1.85
2023-05-09T01:18:03.810Z,1.92
2023-05-09T01:19:05.595Z,2.00
2023-05-09T01:20:34.142Z,2.00
2023-05-09T01:21:40.675Z,1.97
2023-05-09T01:22:48.707Z,1.83
2023-05-09T01:24:20.112Z,1.80
2023-05-09T01:25:39.996Z,1.70
2023-05-09T01:26:56.991Z,1.75
2023-05-09T01:28:08.291Z,1.90
2023-05-09T01:29:34.230Z,1.90
2023-05-09T01:30:38.215Z,2.20
2023-05-09T01:31:42.169Z,2.00
2023-05-09T01:32:47.645Z,1.90
2023-05-09T01:33:54.287Z,1.77
2023-05-09T01:34:59.592Z,2.30
2023-05-09T01:36:05.902Z,2.28
2023-05-09T01:37:08.312Z,2.10
2023-05-09T01:38:17.322Z,1.70
2023-05-09T01:39:19.868Z,2.13
2023-05-09T01:40:23.244Z,1.70
2023-05-09T01:41:28.901Z,2.05
2023-05-09T01:42:42.517Z,1.67
2023-05-09T01:43:46.287Z,1.80
2023-05-09T01:44:49.702Z,1.80
2023-05-09T01:45:53.116Z,1.93
2023-05-09T01:46:56.244Z,2.00
2023-05-09T01:47:59.096Z,2.22
2023-05-09T01:49:02.749Z,2.20
2023-05-09T01:50:05.922Z,1.90
2023-05-09T01:51:09.369Z,1.95
2023-05-09T01:52:14.018Z,1.92
2023-05-09T01:53:17.860Z,2.30
2023-05-09T01:54:22.232Z,1.92
2023-05-09T01:55:26.936Z,2.30
2023-05-09T01:56:29.959Z,2.20
2023-05-09T01:57:32.956Z,2.15
2023-05-09T01:58:36.622Z,2.60
2023-05-09T01:59:42.205Z,2.10
2023-05-09T02:00:45.154Z,2.15
2023-05-09T02:01:47.325Z,1.83
2023-05-09T02:02:50.195Z,2.00
2023-05-09T02:03:53.368Z,1.83
2023-05-09T02:04:57.069Z,1.92
2023-05-09T02:05:59.328Z,2.10
2023-05-09T02:07:02.605Z,2.10
2023-05-09T02:08:05.171Z,2.22
2023-05-09T02:09:07.381Z,2.22
2023-05-09T02:10:10.300Z,2.10
2023-05-09T02:11:12.062Z,2.42
2023-05-09T02:12:13.922Z,2.15
2023-05-09T02:13:15.924Z,2.00
2023-05-09T02:14:17.921Z,2.10
2023-05-09T02:15:19.847Z,2.28
2023-05-09T02:16:22.541Z,2.10
2023-05-09T02:17:24.405Z,1.97
2023-05-09T02:18:26.249Z,2.10
2023-05-09T02:19:28.410Z,1.90
2023-05-09T02:20:30.349Z,2.03
2023-05-09T02:21:32.532Z,2.25
2023-05-09T02:22:34.325Z,2.08
2023-05-09T02:23:36.151Z,2.47
2023-05-09T02:24:38.123Z,1.95
2023-05-09T02:25:41.079Z,2.20
2023-05-09T02:26:43.353Z,2.10
2023-05-09T02:27:46.809Z,2.20
2023-05-09T02:28:49.725Z,2.05
2023-05-09T02:29:56.247Z,2.30
2023-05-09T02:31:00.060Z,2.17
2023-05-09T02:32:04.345Z,2.00
2023-05-09T02:33:08.487Z,2.28
2023-05-09T02:34:11.579Z,2.17
2023-05-09T02:35:16.482Z,2.50
2023-05-09T02:36:19.631Z,2.50
2023-05-09T02:37:22.197Z,2.00
2023-05-09T02:38:24.678Z,2.03
2023-05-09T02:39:26.795Z,2.20
2023-05-09T02:40:30.520Z,2.17
2023-05-09T02:41:32.334Z,2.08
2023-05-09T02:42:34.127Z,2.10
2023-05-09T02:43:35.859Z,2.00
2023-05-09T02:44:38.855Z,2.10
2023-05-09T02:45:40.717Z,2.13
2023-05-09T02:46:42.507Z,2.28
2023-05-09T02:47:44.398Z,2.27
2023-05-09T02:48:46.190Z,2.20
2023-05-09T02:49:48.010Z,2.10
2023-05-09T02:50:49.796Z,2.00
2023-05-09T02:51:51.544Z,1.98
2023-05-09T02:52:53.323Z,2.10
2023-05-09T02:53:55.047Z,2.28
2023-05-09T02:54:57.073Z,2.15
2023-05-09T02:55:58.811Z,2.00
2023-05-09T02:57:00.618Z,2.30
2023-05-09T02:58:12.670Z,2.47
2023-05-09T02:59:16.122Z,2.17
2023-05-09T03:00:19.514Z,2.10
2023-05-09T03:01:21.279Z,1.95
2023-05-09T03:02:23.878Z,3.00
2023-05-09T03:03:25.824Z,2.25
2023-05-09T03:04:27.809Z,2.60
2023-05-09T03:05:29.681Z,2.53
2023-05-09T03:06:31.737Z,1.80
2023-05-09T03:07:34.122Z,2.00
2023-05-09T03:08:35.886Z,2.30
2023-05-09T03:09:39.273Z,2.40
2023-05-09T03:10:42.812Z,2.00
2023-05-09T03:11:44.542Z,2.20
2023-05-09T03:12:46.372Z,2.45
2023-05-09T03:13:48.154Z,2.45
2023-05-09T03:14:49.896Z,2.13
2023-05-09T03:15:51.694Z,2.22
2023-05-09T03:16:53.494Z,2.60
2023-05-09T03:17:55.465Z,2.33
2023-05-09T03:18:57.630Z,1.90
2023-05-09T03:20:00.529Z,2.20
2023-05-09T03:21:04.304Z,2.20
2023-05-09T03:22:06.026Z,2.17
2023-05-09T03:23:07.821Z,2.17
2023-05-09T03:24:10.854Z,2.30
2023-05-09T03:25:13.016Z,2.25
2023-05-09T03:26:14.944Z,2.20
2023-05-09T03:27:16.778Z,2.30
2023-05-09T03:28:18.556Z,2.15
2023-05-09T03:29:20.401Z,2.40
2023-05-09T03:30:22.192Z,2.20
2023-05-09T03:31:23.968Z,2.10
2023-05-09T03:32:27.113Z,2.10
2023-05-09T03:33:28.910Z,2.10
2023-05-09T03:34:30.777Z,2.10
2023-05-09T03:35:32.531Z,2.35
2023-05-09T03:36:34.261Z,2.30
2023-05-09T03:37:36.140Z,2.10
2023-05-09T03:38:37.972Z,2.22
2023-05-09T03:39:39.805Z,2.10
2023-05-09T03:40:41.598Z,2.22
2023-05-09T03:41:44.206Z,2.17
2023-05-09T03:42:45.983Z,2.20
2023-05-09T03:43:47.728Z,2.55
2023-05-09T03:44:49.487Z,2.22
2023-05-09T03:45:51.214Z,2.38
2023-05-09T03:46:53.000Z,2.30
2023-05-09T03:47:54.821Z,2.30
2023-05-09T03:48:56.539Z,2.30
2023-05-09T03:49:58.271Z,1.97
2023-05-09T03:51:00.102Z,2.53
2023-05-09T03:52:02.866Z,2.20
2023-05-09T03:53:04.655Z,2.47
2023-05-09T03:54:06.498Z,2.70
2023-05-09T03:55:08.734Z,2.25
2023-05-09T03:56:10.556Z,2.47
2023-05-09T03:57:12.262Z,2.55
2023-05-09T03:58:14.805Z,2.63
2023-05-09T03:59:16.547Z,2.25
2023-05-09T04:00:18.647Z,2.23
2023-05-09T04:01:20.592Z,2.20
2023-05-09T04:02:23.438Z,2.28
2023-05-09T04:03:25.331Z,2.30
2023-05-09T04:04:27.457Z,2.10
2023-05-09T04:05:29.274Z,2.42
2023-05-09T04:06:31.107Z,2.75
2023-05-09T04:07:32.955Z,2.63
2023-05-09T04:08:34.825Z,2.55
2023-05-09T04:09:36.577Z,2.53
2023-05-09T04:10:38.330Z,2.17
2023-05-09T04:11:40.550Z,2.65
2023-05-09T04:12:42.332Z,2.45
2023-05-09T04:13:44.136Z,2.35
2023-05-09T04:14:48.756Z,1.98
2023-05-09T04:15:51.464Z,2.20
2023-05-09T04:16:53.226Z,2.00
2023-05-09T04:17:55.115Z,2.00
2023-05-09T04:18:56.948Z,1.88
2023-05-09T04:19:58.727Z,2.10
2023-05-09T04:21:00.599Z,2.10
2023-05-09T04:22:02.340Z,1.77
2023-05-09T04:23:04.091Z,2.17
2023-05-09T04:24:06.271Z,2.22
2023-05-09T04:25:12.365Z,2.20
2023-05-09T04:26:15.550Z,2.05
2023-05-09T04:27:17.424Z,1.90
2023-05-09T04:28:20.322Z,2.25
2023-05-09T04:29:22.032Z,1.77
2023-05-09T04:30:26.986Z,2.00
2023-05-09T04:31:29.030Z,2.30
2023-05-09T04:32:30.979Z,2.00
2023-05-09T04:33:32.765Z,1.80
2023-05-09T04:34:34.541Z,1.88
2023-05-09T04:35:36.385Z,2.08
2023-05-09T04:36:38.145Z,1.95
2023-05-09T04:37:40.068Z,1.95
2023-05-09T04:38:41.806Z,1.95
2023-05-09T04:39:44.264Z,1.95
2023-05-09T04:40:46.261Z,1.73
2023-05-09T04:41:49.798Z,1.73
2023-05-09T04:42:51.654Z,2.10
2023-05-09T04:43:53.399Z,1.70
2023-05-09T04:44:55.830Z,2.00
2023-05-09T04:45:57.616Z,1.95
2023-05-09T04:46:59.528Z,1.95
2023-05-09T04:48:01.447Z,1.67
2023-05-09T04:49:03.239Z,1.88
2023-05-09T04:50:05.914Z,1.58
2023-05-09T04:51:07.917Z,1.83
2023-05-09T04:52:09.631Z,1.63
2023-05-09T04:53:11.489Z,1.70
2023-05-09T04:54:13.246Z,1.83
2023-05-09T04:55:15.886Z,1.73
2023-05-09T04:56:17.786Z,1.70
2023-05-09T04:57:19.507Z,1.60
2023-05-09T04:58:21.274Z,1.80
2023-05-09T04:59:23.565Z,2.20
2023-05-09T05:00:25.528Z,2.10
2023-05-09T05:01:27.297Z,1.58
2023-05-09T05:02:29.135Z,2.00
2023-05-09T05:03:31.175Z,1.83
2023-05-09T05:04:33.567Z,1.77
2023-05-09T05:05:37.180Z,1.88
2023-05-09T05:06:39.242Z,1.80
2023-05-09T05:07:41.045Z,1.65
2023-05-09T05:08:43.192Z,1.95
2023-05-09T05:09:44.950Z,1.52
2023-05-09T05:10:47.491Z,1.95
2023-05-09T05:11:59.524Z,1.98
2023-05-09T05:13:02.945Z,1.60
2023-05-09T05:14:04.698Z,2.07
2023-05-09T05:15:06.753Z,1.88
2023-05-09T05:16:08.568Z,1.80
2023-05-09T05:17:10.336Z,1.70
2023-05-09T05:18:15.579Z,1.58
2023-05-09T05:19:21.061Z,1.90
2023-05-09T05:20:23.275Z,1.77
2023-05-09T05:21:25.033Z,1.75
2023-05-09T05:22:26.735Z,1.50
2023-05-09T05:23:28.551Z,1.80
2023-05-09T05:24:30.306Z,1.60
2023-05-09T05:25:32.048Z,1.70
2023-05-09T05:26:33.757Z,1.58
2023-05-09T05:27:35.625Z,1.90
2023-05-09T05:28:37.310Z,1.73
2023-05-09T05:29:39.030Z,2.17
2023-05-09T05:30:41.245Z,2.00
2023-05-09T05:31:43.019Z,1.60
2023-05-09T05:32:44.918Z,1.50
2023-05-09T05:33:46.642Z,1.80
2023-05-09T05:34:48.398Z,1.73
2023-05-09T05:35:50.185Z,1.60
2023-05-09T05:36:51.906Z,1.52
2023-05-09T05:37:53.642Z,1.63
2023-05-09T05:38:55.345Z,1.73
2023-05-09T05:39:57.097Z,1.58
2023-05-09T05:40:58.865Z,1.60
2023-05-09T05:42:00.724Z,1.80
2023-05-09T05:43:02.503Z,1.77
2023-05-09T05:44:04.375Z,1.52
2023-05-09T05:45:06.808Z,1.90
2023-05-09T05:46:08.710Z,1.60
2023-05-09T05:47:10.483Z,1.42
2023-05-09T05:48:12.245Z,1.52
2023-05-09T05:49:13.958Z,1.60
2023-05-09T05:50:15.848Z,1.50
2023-05-09T05:51:17.703Z,1.70
2023-05-09T05:52:19.521Z,1.65
2023-05-09T05:53:21.233Z,1.58
2023-05-09T05:54:23.059Z,1.48
2023-05-09T05:55:24.788Z,1.50
2023-05-09T05:56:26.597Z,1.35
2023-05-09T05:57:28.312Z,1.50
2023-05-09T05:58:30.003Z,1.60
2023-05-09T05:59:31.709Z,1.42
2023-05-09T06:00:33.430Z,1.60
2023-05-09T06:01:35.175Z,1.60
2023-05-09T06:02:37.357Z,1.45
2023-05-09T06:03:39.267Z,1.40
2023-05-09T06:04:41.764Z,1.52
2023-05-09T06:05:44.286Z,1.60
2023-05-09T06:06:46.171Z,1.60
2023-05-09T06:07:48.047Z,1.65
2023-05-09T06:08:52.723Z,1.85
2023-05-09T06:09:54.501Z,1.30
2023-05-09T06:10:56.206Z,1.50
2023-05-09T06:11:57.972Z,1.40
2023-05-09T06:12:59.729Z,1.60
2023-05-09T06:14:01.483Z,1.50
2023-05-09T06:15:05.757Z,1.70
2023-05-09T06:16:18.740Z,1.40
2023-05-09T06:17:22.148Z,1.85
2023-05-09T06:18:23.942Z,1.40
2023-05-09T06:19:25.757Z,1.60
2023-05-09T06:20:27.617Z,1.30
2023-05-09T06:21:29.341Z,1.60
2023-05-09T06:22:31.058Z,1.38
2023-05-09T06:23:32.994Z,1.30
2023-05-09T06:24:36.309Z,1.42
2023-05-09T06:25:38.397Z,1.23
2023-05-09T06:26:40.509Z,1.40
2023-05-09T06:27:42.604Z,1.30
2023-05-09T06:28:44.321Z,1.83
2023-05-09T06:29:46.091Z,1.20
2023-05-09T06:30:47.832Z,1.30
2023-05-09T06:31:49.616Z,1.42
2023-05-09T06:32:51.365Z,1.30
2023-05-09T06:33:53.326Z,1.20
2023-05-09T06:34:55.069Z,1.38
2023-05-09T06:35:56.765Z,1.20
2023-05-09T06:36:58.478Z,1.47
2023-05-09T06:38:00.238Z,1.40
2023-05-09T06:39:02.273Z,1.30
2023-05-09T06:40:04.455Z,1.38
2023-05-09T06:41:06.266Z,1.50
2023-05-09T06:42:08.104Z,1.30
2023-05-09T06:43:09.918Z,1.73
2023-05-09T06:44:11.718Z,1.40
2023-05-09T06:45:13.800Z,1.42
2023-05-09T06:46:15.852Z,1.30
2023-05-09T06:47:17.665Z,1.33
2023-05-09T06:48:19.457Z,1.60
2023-05-09T06:49:21.188Z,1.70
2023-05-09T06:50:23.001Z,1.70
2023-05-09T06:51:24.715Z,1.33
2023-05-09T06:52:26.442Z,1.20
2023-05-09T06:53:28.254Z,1.42
2023-05-09T06:54:29.982Z,1.40
2023-05-09T06:55:31.811Z,1.45
2023-05-09T06:56:33.720Z,1.35
2023-05-09T06:57:35.656Z,1.53
2023-05-09T06:58:37.560Z,1.30
2023-05-09T06:59:39.319Z,1.50
2023-05-09T07:00:41.050Z,1.40
2023-05-09T07:01:43.170Z,1.35
2023-05-09T07:02:45.324Z,1.27
2023-05-09T07:03:47.565Z,1.55
2023-05-09T07:04:49.472Z,1.30
2023-05-09T07:05:52.444Z,1.40
2023-05-09T07:06:54.202Z,1.33
2023-05-09T07:07:56.884Z,1.40
2023-05-09T07:08:58.685Z,1.40
2023-05-09T07:10:10.593Z,1.30
2023-05-09T07:11:13.964Z,1.60
2023-05-09T07:12:15.772Z,1.30
2023-05-09T07:13:17.630Z,1.40
2023-05-09T07:14:20.518Z,1.38
2023-05-09T07:15:36.806Z,1.40
2023-05-09T07:16:42.261Z,1.20
2023-05-09T07:17:44.237Z,1.40
2023-05-09T07:18:45.962Z,1.80
2023-05-09T07:19:47.720Z,1.50
2023-05-09T07:20:49.515Z,1.52
2023-05-09T07:21:51.264Z,1.60
2023-05-09T07:22:53.066Z,1.50
2023-05-09T07:23:54.880Z,1.30
2023-05-09T07:24:56.823Z,1.30
2023-05-09T07:25:58.944Z,1.40
2023-05-09T07:27:03.779Z,1.42
2023-05-09T07:28:05.809Z,1.67
2023-05-09T07:29:07.593Z,1.47
2023-05-09T07:30:09.757Z,1.58
2023-05-09T07:31:11.729Z,1.40
2023-05-09T07:32:13.531Z,1.80
2023-05-09T07:33:15.368Z,1.40
2023-05-09T07:34:17.326Z,1.55
2023-05-09T07:35:20.379Z,1.30
2023-05-09T07:36:22.125Z,1.58
2023-05-09T07:37:24.070Z,1.60
2023-05-09T07:38:26.320Z,1.45
2023-05-09T07:39:28.075Z,1.40
2023-05-09T07:40:29.889Z,1.38
2023-05-09T07:41:32.045Z,1.50
2023-05-09T07:42:33.960Z,1.38
2023-05-09T07:43:36.133Z,1.63
2023-05-09T07:44:37.873Z,1.33
2023-05-09T07:45:39.625Z,1.58
2023-05-09T07:46:42.129Z,1.40
2023-05-09T07:47:44.223Z,1.63
2023-05-09T07:48:46.094Z,1.40
2023-05-09T07:49:48.093Z,1.60
2023-05-09T07:50:49.850Z,1.50
2023-05-09T07:51:51.649Z,1.70
2023-05-09T07:52:53.800Z,1.48
2023-05-09T07:53:56.541Z,1.40
2023-05-09T07:54:58.332Z,2.13
2023-05-09T07:56:00.735Z,1.40
2023-05-09T07:57:02.597Z,1.15
2023-05-09T07:58:04.394Z,1.38
2023-05-09T07:59:06.142Z,1.52
2023-05-09T08:00:11.458Z,1.20
2023-05-09T08:01:13.196Z,1.20
2023-05-09T08:02:14.974Z,1.33
2023-05-09T08:03:16.940Z,1.40
2023-05-09T08:04:18.812Z,1.75
2023-05-09T08:05:20.668Z,1.30
2023-05-09T08:06:22.451Z,1.17
2023-05-09T08:07:24.667Z,1.20
2023-05-09T08:08:27.105Z,1.42
2023-05-09T08:09:28.902Z,1.23
2023-05-09T08:10:32.183Z,1.40
2023-05-09T08:11:34.627Z,1.55
2023-05-09T08:12:36.456Z,1.40
2023-05-09T08:13:38.274Z,1.65
2023-05-09T08:14:40.107Z,1.80
2023-05-09T08:15:42.004Z,1.20
2023-05-09T08:16:43.989Z,1.40
2023-05-09T08:17:45.835Z,1.48
2023-05-09T08:18:48.012Z,1.33
2023-05-09T08:19:49.771Z,1.30
2023-05-09T08:20:51.534Z,1.50
2023-05-09T08:21:53.728Z,1.40
2023-05-09T08:22:55.471Z,1.42
2023-05-09T08:23:57.253Z,1.67
2023-05-09T08:24:59.053Z,1.27
2023-05-09T08:26:00.976Z,1.30
2023-05-09T08:27:02.809Z,1.40
2023-05-09T08:28:04.772Z,1.30
2023-05-09T08:29:06.509Z,1.40
2023-05-09T08:30:08.801Z,1.40
2023-05-09T08:31:10.878Z,1.60
2023-05-09T08:32:12.666Z,1.20
2023-05-09T08:33:14.465Z,1.20
2023-05-09T08:34:16.476Z,1.02
2023-05-09T08:35:18.273Z,1.23
2023-05-09T08:36:20.075Z,1.45
2023-05-09T08:37:21.830Z,1.30
2023-05-09T08:38:24.748Z,1.10
2023-05-09T08:39:26.683Z,1.30
2023-05-09T08:40:28.459Z,1.30
2023-05-09T08:41:35.953Z,1.30
2023-05-09T08:42:38.663Z,1.60
2023-05-09T08:43:40.884Z,1.48
2023-05-09T08:44:42.694Z,1.42
2023-05-09T08:45:52.143Z,1.15
2023-05-09T08:46:59.052Z,1.27
2023-05-09T08:48:03.690Z,1.27
2023-05-09T08:49:09.445Z,0.98
2023-05-09T08:50:11.927Z,1.33
2023-05-09T08:51:16.059Z,1.25
2023-05-09T08:52:18.239Z,1.30
2023-05-09T08:53:21.743Z,1.20
2023-05-09T08:54:24.592Z,1.13
2023-05-09T08:55:27.613Z,1.27
2023-05-09T08:56:31.049Z,1.88
2023-05-09T08:57:36.743Z,1.20
2023-05-09T08:58:39.052Z,1.50
2023-05-09T08:59:42.208Z,1.30
2023-05-09T09:00:44.203Z,1.40
2023-05-09T09:01:46.155Z,1.20
2023-05-09T09:02:48.855Z,1.50
2023-05-09T09:03:51.405Z,1.30
2023-05-09T09:04:54.815Z,1.30
2023-05-09T09:05:57.838Z,1.30
2023-05-09T09:07:01.035Z,1.30
2023-05-09T09:08:05.488Z,1.33
2023-05-09T09:09:09.096Z,1.23
2023-05-09T09:10:12.003Z,1.10
2023-05-09T09:11:14.962Z,1.40
2023-05-09T09:12:17.591Z,1.20
2023-05-09T09:13:21.154Z,1.30
2023-05-09T09:14:27.720Z,1.20
2023-05-09T09:15:34.471Z,1.80
2023-05-09T09:16:37.682Z,1.10
2023-05-09T09:17:42.778Z,1.30
2023-05-09T09:18:44.931Z,1.40
2023-05-09T09:19:50.050Z,1.65
2023-05-09T09:20:57.818Z,1.38
2023-05-09T09:22:02.621Z,1.50
2023-05-09T09:23:07.851Z,1.20
2023-05-09T09:24:12.726Z,1.23
2023-05-09T09:25:14.533Z,1.30
2023-05-09T09:26:16.655Z,1.50
2023-05-09T09:27:19.284Z,1.38
2023-05-09T09:28:21.181Z,1.20
2023-05-09T09:29:23.135Z,1.48
2023-05-09T09:30:25.504Z,1.30
2023-05-09T09:31:31.607Z,1.13
2023-05-09T09:32:34.352Z,1.20
2023-05-09T09:33:36.517Z,1.27
2023-05-09T09:34:38.330Z,1.10
2023-05-09T09:35:41.028Z,1.02
2023-05-09T09:36:42.896Z,1.20
2023-05-09T09:37:44.757Z,1.13
2023-05-09T09:38:46.868Z,1.08
2023-05-09T09:39:55.990Z,0.98
2023-05-09T09:40:58.878Z,1.10
2023-05-09T09:42:11.788Z,1.20
2023-05-09T09:43:14.152Z,1.20
2023-05-09T09:44:20.940Z,1.25
2023-05-09T09:45:22.759Z,1.50
2023-05-09T09:46:24.844Z,1.40
2023-05-09T09:47:33.191Z,1.13
2023-05-09T09:48:35.548Z,1.15
2023-05-09T09:49:37.379Z,1.27
2023-05-09T09:50:39.118Z,1.10
2023-05-09T09:51:41.902Z,1.20
2023-05-09T09:52:55.717Z,1.33
2023-05-09T09:53:57.448Z,0.95
2023-05-09T09:55:00.389Z,1.10
2023-05-09T09:56:02.195Z,1.20
2023-05-09T09:57:04.009Z,1.13
2023-05-09T09:58:25.200Z,0.93
2023-05-09T09:59:27.585Z,1.40
2023-05-09T10:00:30.191Z,1.10
2023-05-09T10:01:31.995Z,1.15
2023-05-09T10:02:34.026Z,1.10
2023-05-09T10:03:40.732Z,1.25
2023-05-09T10:04:43.993Z,1.25
2023-05-09T10:05:45.754Z,1.10
2023-05-09T10:06:53.416Z,1.40
2023-05-09T10:08:01.661Z,1.25
2023-05-09T10:09:03.507Z,1.10
2023-05-09T10:10:06.237Z,1.27
2023-05-09T10:11:09.128Z,0.90
2023-05-09T10:12:11.896Z,1.00
2023-05-09T10:13:13.974Z,1.15
2023-05-09T10:14:16.903Z,1.20
2023-05-09T10:15:20.302Z,1.45
2023-05-09T10:16:31.919Z,1.40
2023-05-09T10:17:43.964Z,1.10
2023-05-09T10:18:46.071Z,1.20
2023-05-09T10:19:49.818Z,1.30
2023-05-09T10:20:52.042Z,1.30
2023-05-09T10:21:56.582Z,1.00
2023-05-09T10:23:02.009Z,1.13
2023-05-09T10:24:05.680Z,1.23
2023-05-09T10:25:14.902Z,1.20
2023-05-09T10:26:18.600Z,1.50
2023-05-09T10:27:25.911Z,1.30
2023-05-09T10:28:32.221Z,1.33
2023-05-09T10:29:41.451Z,1.20
2023-05-09T10:31:14.698Z,1.30
2023-05-09T10:32:22.542Z,1.40
2023-05-09T10:33:38.380Z,1.20
2023-05-09T10:34:44.515Z,1.17
2023-05-09T10:35:47.434Z,1.30
2023-05-09T10:36:49.772Z,1.30
2023-05-09T10:37:55.528Z,1.30
2023-05-09T10:38:57.593Z,2.72
2023-05-09T10:40:02.818Z,1.30
2023-05-09T10:41:05.688Z,1.35
2023-05-09T10:42:08.493Z,1.65
2023-05-09T10:43:10.297Z,1.40
2023-05-09T10:44:12.130Z,1.20
2023-05-09T10:45:14.498Z,1.63
2023-05-09T10:46:17.706Z,1.40
2023-05-09T10:47:23.998Z,1.10
2023-05-09T10:48:26.383Z,1.50
2023-05-09T10:49:28.657Z,1.33
2023-05-09T10:50:31.421Z,1.10
2023-05-09T10:51:33.813Z,1.08
2023-05-09T10:52:55.633Z,1.00
2023-05-09T10:53:57.971Z,1.15
2023-05-09T10:55:05.245Z,1.10
2023-05-09T10:56:07.326Z,1.05
2023-05-09T10:57:12.013Z,0.90
2023-05-09T10:58:28.749Z,1.20
2023-05-09T10:59:40.066Z,1.23
2023-05-09T11:00:42.623Z,0.93
2023-05-09T11:01:46.557Z,1.27
2023-05-09T11:03:10.157Z,1.02
2023-05-09T11:04:14.482Z,1.02
2023-05-09T11:05:20.301Z,1.13
2023-05-09T11:06:40.879Z,1.20
2023-05-09T11:07:43.438Z,1.02
2023-05-09T11:08:45.225Z,1.30
2023-05-09T11:10:07.540Z,1.00
2023-05-09T11:11:25.441Z,1.05
2023-05-09T11:12:27.298Z,0.98
2023-05-09T11:13:36.241Z,0.80
2023-05-09T11:14:38.138Z,1.00
2023-05-09T11:16:03.185Z,0.85
2023-05-09T11:17:21.934Z,0.90
2023-05-09T11:18:23.794Z,1.10
2023-05-09T11:19:47.527Z,1.00
2023-05-09T11:20:49.676Z,1.02
2023-05-09T11:22:03.349Z,0.95
2023-05-09T11:23:06.850Z,1.00
2023-05-09T11:24:17.099Z,1.00
2023-05-09T11:25:28.536Z,1.07
2023-05-09T11:26:31.331Z,0.80
2023-05-09T11:27:43.570Z,1.00
2023-05-09T11:28:53.400Z,0.85
2023-05-09T11:30:04.520Z,0.90
2023-05-09T11:31:18.067Z,0.80
2023-05-09T11:32:34.220Z,0.73
2023-05-09T11:33:37.344Z,1.02
2023-05-09T11:34:41.766Z,1.00
2023-05-09T11:35:44.103Z,1.20
2023-05-09T11:36:48.151Z,1.17
2023-05-09T11:38:03.924Z,0.80
2023-05-09T11:39:10.574Z,0.80
2023-05-09T11:40:13.551Z,0.90
2023-05-09T11:41:15.888Z,0.60
2023-05-09T11:42:18.125Z,0.70
2023-05-09T11:43:20.046Z,0.70
2023-05-09T11:44:21.972Z,1.08
2023-05-09T11:45:26.913Z,0.90
2023-05-09T11:46:28.734Z,1.00
2023-05-09T11:47:30.920Z,0.63
2023-05-09T11:48:38.810Z,1.00
2023-05-09T11:49:44.486Z,0.80
2023-05-09T11:50:48.066Z,0.80
2023-05-09T11:51:50.204Z,0.70
2023-05-09T11:52:52.074Z,0.80
2023-05-09T11:53:54.164Z,0.85
2023-05-09T11:54:57.933Z,0.90
2023-05-09T11:56:04.259Z,0.70
2023-05-09T11:57:06.816Z,0.90
2023-05-09T11:58:09.715Z,0.70
2023-05-09T11:59:14.528Z,1.05
2023-05-09T12:00:21.385Z,0.77
2023-05-09T12:01:23.341Z,1.13
2023-05-09T12:02:25.215Z,0.90
2023-05-09T12:03:27.323Z,0.90
2023-05-09T12:04:30.950Z,1.00
2023-05-09T12:05:32.744Z,0.80
2023-05-09T12:06:34.583Z,0.90
2023-05-09T12:07:39.688Z,0.98
2023-05-09T12:08:41.564Z,0.80
2023-05-09T12:09:43.815Z,0.90
2023-05-09T12:10:45.551Z,0.70
2023-05-09T12:11:50.836Z,0.77
2023-05-09T12:12:55.677Z,1.00
2023-05-09T12:13:57.746Z,0.80
2023-05-09T12:15:04.531Z,0.70
2023-05-09T12:16:09.118Z,0.80
2023-05-09T12:17:10.998Z,0.90
2023-05-09T12:18:12.929Z,0.95
2023-05-09T12:19:15.131Z,0.70
2023-05-09T12:20:16.910Z,0.98
2023-05-09T12:21:19.754Z,0.90
2023-05-09T12:22:22.126Z,0.90
2023-05-09T12:23:23.877Z,0.85
2023-05-09T12:24:26.952Z,0.80
2023-05-09T12:25:28.700Z,0.88
2023-05-09T12:26:30.659Z,0.80
2023-05-09T12:27:33.393Z,0.90
2023-05-09T12:28:36.302Z,0.88
2023-05-09T12:29:40.290Z,0.70
2023-05-09T12:30:42.358Z,0.90
2023-05-09T12:31:44.416Z,0.90
2023-05-09T12:32:46.675Z,0.80
2023-05-09T12:33:48.594Z,0.80
2023-05-09T12:34:51.620Z,0.90
2023-05-09T12:36:10.203Z,0.95
2023-05-09T12:37:17.369Z,0.73
2023-05-09T12:38:23.178Z,0.98
2023-05-09T12:39:25.119Z,0.80
2023-05-09T12:40:27.815Z,1.00
2023-05-09T12:41:39.131Z,0.77
2023-05-09T12:42:44.714Z,0.88
2023-05-09T12:43:49.308Z,0.95
2023-05-09T12:44:51.466Z,0.80
2023-05-09T12:45:53.490Z,0.65
2023-05-09T12:47:03.282Z,0.80
2023-05-09T12:48:06.109Z,0.95
2023-05-09T12:49:20.276Z,0.98
2023-05-09T12:50:22.210Z,1.10
2023-05-09T12:51:24.037Z,0.70
2023-05-09T12:52:26.156Z,0.70
2023-05-09T12:53:32.192Z,0.80
2023-05-09T12:54:34.015Z,0.75
2023-05-09T12:55:40.725Z,0.90
2023-05-09T12:56:42.493Z,1.08
2023-05-09T12:58:03.372Z,1.05
2023-05-09T12:59:11.298Z,0.82
2023-05-09T13:00:13.492Z,0.75
2023-05-09T13:01:16.062Z,0.90
2023-05-09T13:02:18.073Z,0.90
2023-05-09T13:03:21.718Z,0.80
2023-05-09T13:04:25.179Z,0.85
2023-05-09T13:05:26.929Z,0.90
2023-05-09T13:06:28.728Z,0.68
2023-05-09T13:07:39.284Z,0.90
2023-05-09T13:08:41.595Z,0.80
2023-05-09T13:10:00.911Z,0.80
2023-05-09T13:11:14.942Z,0.80
2023-05-09T13:12:20.546Z,0.77
2023-05-09T13:13:26.732Z,0.80
2023-05-09T13:14:28.731Z,0.90
2023-05-09T13:15:30.752Z,0.85
2023-05-09T13:16:32.659Z,0.77
2023-05-09T13:17:34.567Z,1.05
2023-05-09T13:18:36.968Z,0.80
2023-05-09T13:19:39.580Z,0.80
2023-05-09T13:20:41.381Z,0.90
2023-05-09T13:21:43.274Z,0.65
2023-05-09T13:22:45.706Z,0.93
2023-05-09T13:23:49.948Z,0.90
2023-05-09T13:24:51.914Z,1.30
2023-05-09T13:25:53.695Z,0.60
2023-05-09T13:26:55.619Z,0.60
2023-05-09T13:27:57.400Z,1.00
2023-05-09T13:28:59.268Z,0.95
2023-05-09T13:30:01.152Z,1.10
2023-05-09T13:31:04.045Z,1.10
2023-05-09T13:32:06.062Z,1.10
2023-05-09T13:33:23.733Z,0.90
2023-05-09T13:34:26.731Z,0.90
2023-05-09T13:35:28.693Z,0.98
2023-05-09T13:36:31.622Z,0.80
2023-05-09T13:37:36.406Z,0.90
2023-05-09T13:38:40.591Z,0.75
2023-05-09T13:39:42.539Z,0.95
2023-05-09T13:40:44.278Z,0.95
2023-05-09T13:41:46.224Z,0.80
2023-05-09T13:42:48.950Z,1.00
2023-05-09T13:43:51.045Z,1.20
2023-05-09T13:44:52.835Z,1.00
2023-05-09T13:45:54.763Z,1.00
2023-05-09T13:46:58.647Z,0.90
2023-05-09T13:48:00.487Z,0.90
2023-05-09T13:49:02.311Z,0.88
2023-05-09T13:50:04.242Z,0.85
2023-05-09T13:51:07.755Z,0.90
2023-05-09T13:52:09.585Z,0.90
2023-05-09T13:53:11.772Z,0.90
2023-05-09T13:54:14.743Z,0.73
2023-05-09T13:55:16.596Z,1.00
2023-05-09T13:56:18.390Z,0.90
2023-05-09T13:57:20.138Z,0.95
2023-05-09T13:58:21.890Z,1.13
2023-05-09T13:59:23.727Z,0.98
2023-05-09T14:00:26.599Z,0.90
2023-05-09T14:01:28.847Z,0.90
2023-05-09T14:02:30.739Z,0.65
2023-05-09T14:03:32.671Z,1.00
2023-05-09T14:04:34.600Z,0.80
2023-05-09T14:05:36.556Z,1.00
2023-05-09T14:06:38.435Z,0.80
2023-05-09T14:07:40.181Z,0.88
2023-05-09T14:08:41.981Z,1.10